Time;durP1;ratioP1;P1;durP2;ratioP2;P2;SDS_P1;SDS_P2;PMS_P1;PMS_P2;Temp;Humidity;BMP_temperature;BMP_pressure;BME280_temperature;BME280_humidity;BME280_pressure;Samples;Min_cycle;Max_cycle;Signal;HPM_P1;HPM_P2
2023/02/20 00:00:36;;;;;;;4.13;2.00;;;7.40;99.90;;;;;;5003775;28;20039;-77
2023/02/20 00:03:02;;;;;;;7.17;2.10;;;7.40;99.90;;;;;;5007879;28;20030;-77
2023/02/20 00:05:28;;;;;;;6.00;2.03;;;7.40;99.90;;;;;;5007309;28;20041;-77
2023/02/20 00:07:53;;;;;;;5.17;2.20;;;7.50;99.90;;;;;;5008780;28;20030;-81
2023/02/20 00:10:19;;;;;;;5.47;1.80;;;7.40;99.90;;;;;;5009830;28;20026;-81
2023/02/20 00:12:45;;;;;;;6.13;2.00;;;7.50;99.90;;;;;;5008274;28;20132;-81
2023/02/20 00:15:13;;;;;;;4.53;1.80;;;7.50;99.90;;;;;;5007407;28;20033;-81
2023/02/20 00:17:41;;;;;;;3.90;1.93;;;7.50;99.90;;;;;;5009759;28;20025;-81
2023/02/20 00:20:07;;;;;;;7.10;2.17;;;7.40;99.90;;;;;;5007966;28;20448;-81
2023/02/20 00:22:33;;;;;;;3.23;1.80;;;7.50;99.90;;;;;;5008280;28;20101;-81
2023/02/20 00:24:58;;;;;;;5.90;2.10;;;7.50;99.90;;;;;;5007157;28;20033;-81
2023/02/20 00:27:24;;;;;;;5.87;2.20;;;7.50;99.90;;;;;;5006524;28;20025;-81
2023/02/20 00:29:49;;;;;;;4.07;2.20;;;7.40;99.90;;;;;;5007955;28;20459;-81
2023/02/20 00:32:15;;;;;;;4.83;2.20;;;7.40;99.90;;;;;;5007019;28;20348;-81
2023/02/20 00:34:41;;;;;;;7.03;1.90;;;7.40;99.90;;;;;;5006341;28;20481;-81
2023/02/20 00:37:07;;;;;;;3.03;1.80;;;7.40;99.90;;;;;;5006501;28;20772;-81
2023/02/20 00:39:33;;;;;;;3.50;1.90;;;7.40;99.90;;;;;;5008964;28;20103;-81
2023/02/20 00:41:59;;;;;;;5.40;1.80;;;7.40;99.90;;;;;;5007275;28;20018;-81
2023/02/20 00:44:24;;;;;;;2.57;1.83;;;7.40;99.90;;;;;;5006204;28;20025;-81
2023/02/20 00:46:50;;;;;;;4.60;2.00;;;7.40;99.90;;;;;;5006529;28;20022;-81
2023/02/20 00:49:16;;;;;;;3.67;2.00;;;7.30;99.90;;;;;;5007096;28;20432;-81
2023/02/20 00:51:41;;;;;;;5.43;1.90;;;7.40;99.90;;;;;;5008073;28;20030;-81
2023/02/20 00:54:07;;;;;;;6.30;1.90;;;7.30;99.90;;;;;;5006669;28;20033;-81
2023/02/20 00:56:32;;;;;;;5.33;2.10;;;7.30;99.90;;;;;;5006485;28;20030;-81
2023/02/20 00:58:58;;;;;;;4.97;1.70;;;7.40;99.90;;;;;;5007112;28;20033;-81
2023/02/20 01:01:24;;;;;;;4.73;1.87;;;7.30;99.90;;;;;;5006597;28;20018;-82
2023/02/20 01:03:49;;;;;;;4.23;2.00;;;7.30;99.90;;;;;;5005357;28;20040;-81
2023/02/20 01:06:15;;;;;;;4.57;1.80;;;7.30;99.90;;;;;;5008205;28;20394;-81
2023/02/20 01:08:41;;;;;;;5.40;1.90;;;7.20;99.90;;;;;;5006224;28;20438;-81
2023/02/20 01:11:06;;;;;;;4.00;1.77;;;7.30;99.90;;;;;;5007039;28;21079;-81
2023/02/20 01:13:32;;;;;;;3.83;1.90;;;7.20;99.90;;;;;;5005541;28;20033;-81
2023/02/20 01:15:57;;;;;;;7.00;2.00;;;7.20;99.90;;;;;;5003144;28;20367;-81
2023/02/20 01:18:23;;;;;;;4.87;1.80;;;7.20;99.90;;;;;;5007526;28;20076;-81
2023/02/20 01:20:49;;;;;;;3.97;2.20;;;7.20;99.90;;;;;;5007092;28;20467;-81
2023/02/20 01:23:14;;;;;;;5.00;2.10;;;7.20;99.90;;;;;;5008015;28;20452;-81
2023/02/20 01:25:40;;;;;;;3.33;2.00;;;7.20;99.90;;;;;;5005457;28;20620;-81
2023/02/20 01:28:05;;;;;;;5.03;1.93;;;7.20;99.90;;;;;;5006307;28;20141;-81
2023/02/20 01:30:31;;;;;;;5.37;2.10;;;7.20;99.90;;;;;;5007105;28;20030;-81
2023/02/20 01:32:56;;;;;;;6.07;1.90;;;7.20;99.90;;;;;;5007092;28;20026;-81
2023/02/20 01:35:22;;;;;;;4.83;1.90;;;7.20;99.90;;;;;;5007170;28;20034;-81
2023/02/20 01:37:47;;;;;;;5.13;2.00;;;7.30;99.90;;;;;;5006015;28;20038;-81
2023/02/20 01:40:22;;;;;;;6.10;2.10;;;7.30;99.90;;;;;;5005406;28;20030;-81
2023/02/20 01:42:49;;;;;;;5.05;2.00;;;7.20;99.90;;;;;;5006146;28;20034;-81
2023/02/20 01:45:18;;;;;;;6.00;2.10;;;7.20;99.90;;;;;;5005756;28;20029;-81
2023/02/20 01:47:43;;;;;;;4.03;1.80;;;7.20;99.90;;;;;;5007261;28;20032;-81
2023/02/20 01:50:11;;;;;;;6.53;2.20;;;7.20;99.90;;;;;;5005072;28;20013;-81
2023/02/20 01:52:40;;;;;;;7.00;2.70;;;7.10;99.90;;;;;;5005504;28;20124;-82
2023/02/20 01:55:12;;;;;;;3.43;1.80;;;7.20;99.90;;;;;;5005042;28;20037;-81
2023/02/20 01:57:42;;;;;;;5.87;2.20;;;7.20;99.90;;;;;;5006941;28;20100;-81
2023/02/20 02:00:12;;;;;;;2.53;1.90;;;7.20;99.90;;;;;;5005272;28;20049;-81
2023/02/20 02:02:44;;;;;;;3.77;2.10;;;7.20;99.90;;;;;;5005601;28;20021;-81
2023/02/20 02:05:12;;;;;;;7.43;2.40;;;7.20;99.90;;;;;;5003556;28;20030;-81
2023/02/20 02:07:39;;;;;;;4.60;2.23;;;7.20;99.90;;;;;;5004977;28;20030;-81
2023/02/20 02:10:12;;;;;;;5.00;1.90;;;7.10;99.90;;;;;;5005287;28;20028;-81
2023/02/20 02:12:39;;;;;;;4.60;1.90;;;7.10;99.90;;;;;;5004848;28;20025;-81
2023/02/20 02:15:14;;;;;;;5.97;2.10;;;7.00;99.90;;;;;;5003564;28;20026;-81
2023/02/20 02:17:57;;;;;;;4.47;2.40;;;7.00;99.90;;;;;;5004975;28;20022;-81
2023/02/20 02:20:41;;;;;;;3.93;2.20;;;7.00;99.90;;;;;;5006281;28;20096;-81
2023/02/20 02:23:28;;;;;;;3.93;2.00;;;7.00;99.90;;;;;;5005111;28;20034;-81
2023/02/20 02:26:21;;;;;;;5.87;2.60;;;7.00;99.90;;;;;;5004113;28;20021;-81
2023/02/20 02:29:14;;;;;;;4.87;2.53;;;7.00;99.90;;;;;;5002792;28;20022;-81
2023/02/20 02:31:58;;;;;;;5.07;2.60;;;7.00;99.90;;;;;;5001932;28;20118;-81
2023/02/20 02:34:27;;;;;;;3.60;2.30;;;7.00;99.90;;;;;;5004335;28;20356;-81
2023/02/20 02:37:22;;;;;;;6.73;2.63;;;7.00;99.90;;;;;;5006152;28;20038;-81
2023/02/20 02:40:12;;;;;;;3.53;2.33;;;7.00;99.90;;;;;;5006772;28;20463;-81
2023/02/20 02:42:56;;;;;;;6.23;2.63;;;7.00;99.90;;;;;;5004760;28;20075;-81
2023/02/20 02:45:31;;;;;;;6.23;2.40;;;6.90;99.90;;;;;;5005658;28;20034;-81
2023/02/20 02:48:15;;;;;;;7.32;2.55;;;6.90;99.90;;;;;;5007108;28;20084;-81
2023/02/20 02:50:45;;;;;;;6.40;2.87;;;6.90;99.90;;;;;;5004349;28;20045;-81
2023/02/20 02:53:13;;;;;;;5.90;2.63;;;6.90;99.90;;;;;;5004890;28;20129;-81
2023/02/20 02:55:39;;;;;;;5.10;2.67;;;6.90;99.90;;;;;;5004196;28;20490;-81
2023/02/20 02:58:05;;;;;;;10.20;3.63;;;6.90;99.90;;;;;;5005743;28;20022;-81
2023/02/20 03:00:44;;;;;;;5.77;2.30;;;6.90;99.90;;;;;;5005950;28;20034;-81
2023/02/20 03:03:21;;;;;;;5.40;2.67;;;6.90;99.90;;;;;;5004959;28;20072;-81
2023/02/20 03:05:56;;;;;;;5.77;2.97;;;6.90;99.90;;;;;;5016433;28;20026;-81
2023/02/20 03:09:13;;;;;;;7.90;2.72;;;6.90;99.90;;;;;;5004486;28;20030;-81
2023/02/20 03:11:39;;;;;;;6.73;3.03;;;6.90;99.90;;;;;;4957911;28;20034;-81
2023/02/20 03:17:11;;;;;;;4.27;2.90;;;6.90;99.90;;;;;;5007391;28;20041;-81
2023/02/20 03:19:41;;;;;;;8.70;3.07;;;6.90;99.90;;;;;;5007633;28;20030;-81
2023/02/20 03:22:14;;;;;;;6.70;3.17;;;6.90;99.90;;;;;;5008320;28;20022;-81
2023/02/20 03:24:57;;;;;;;3.93;2.50;;;6.90;99.90;;;;;;5000503;28;20109;-81
2023/02/20 03:27:45;;;;;;;4.83;2.57;;;6.90;99.90;;;;;;5010349;28;20026;-81
2023/02/20 03:30:20;;;;;;;6.57;2.93;;;6.90;99.90;;;;;;5010517;28;20033;-81
2023/02/20 03:43:59;;;;;;;6.87;2.97;;;6.80;99.90;;;;;;5009042;28;20112;-81
2023/02/20 03:46:26;;;;;;;5.73;2.80;;;6.80;99.90;;;;;;5009780;28;20029;-81
2023/02/20 03:49:01;;;;;;;6.37;2.80;;;6.80;99.90;;;;;;5007388;28;20582;-81
2023/02/20 03:51:27;;;;;;;8.68;2.88;;;6.80;99.90;;;;;;5018968;28;20112;-81
2023/02/20 03:53:53;;;;;;;4.63;2.63;;;6.70;99.90;;;;;;5008944;28;20089;-81
2023/02/20 03:56:30;;;;;;;6.07;3.27;;;6.80;99.90;;;;;;5008500;28;20497;-81
2023/02/20 03:59:11;;;;;;;5.27;2.83;;;6.80;99.90;;;;;;5009576;28;20029;-81
2023/02/20 04:01:38;;;;;;;7.57;3.20;;;6.70;99.90;;;;;;5009005;28;20030;-81
2023/02/20 04:04:06;;;;;;;4.40;2.87;;;6.70;99.90;;;;;;5008891;28;20114;-81
2023/02/20 04:06:33;;;;;;;7.37;3.17;;;6.70;99.90;;;;;;5007008;28;20378;-81
2023/02/20 04:09:06;;;;;;;4.33;2.70;;;6.60;99.90;;;;;;5009658;28;20046;-81
2023/02/20 04:11:41;;;;;;;5.73;3.00;;;6.60;99.90;;;;;;5007258;28;20038;-81
2023/02/20 04:14:08;;;;;;;3.83;2.70;;;6.50;99.90;;;;;;5008184;28;20045;-81
2023/02/20 04:16:46;;;;;;;9.73;3.13;;;6.40;99.90;;;;;;5006210;28;20037;-81
2023/02/20 04:19:12;;;;;;;4.80;2.50;;;6.40;99.90;;;;;;5007404;28;20084;-81
2023/02/20 04:21:44;;;;;;;6.03;2.80;;;6.30;99.90;;;;;;5008359;28;20850;-81
2023/02/20 04:24:19;;;;;;;4.40;2.90;;;6.30;99.90;;;;;;5007261;28;20037;-81
2023/02/20 04:26:45;;;;;;;5.25;3.42;;;6.20;99.90;;;;;;5005704;28;20494;-81
2023/02/20 04:29:11;;;;;;;9.67;3.23;;;6.20;99.90;;;;;;5009073;28;20056;-81
2023/02/20 04:31:37;;;;;;;5.90;3.17;;;6.20;99.90;;;;;;5004762;28;20365;-81
2023/02/20 04:34:02;;;;;;;8.37;2.97;;;6.10;99.90;;;;;;5005926;28;20030;-81
2023/02/20 04:36:28;;;;;;;5.70;2.93;;;6.00;99.90;;;;;;5007245;28;20029;-81
2023/02/20 04:38:53;;;;;;;5.77;2.90;;;6.00;99.90;;;;;;5007442;28;20021;-81
2023/02/20 04:41:19;;;;;;;8.27;3.23;;;5.90;99.90;;;;;;5004685;28;20033;-81
2023/02/20 04:43:46;;;;;;;8.07;2.97;;;5.90;99.90;;;;;;5007539;28;20029;-81
2023/02/20 04:46:11;;;;;;;6.10;3.07;;;5.90;99.90;;;;;;5006891;28;20018;-81
2023/02/20 04:48:37;;;;;;;7.90;3.17;;;5.90;99.90;;;;;;5005786;28;20390;-81
2023/02/20 04:51:02;;;;;;;5.47;3.00;;;5.80;99.90;;;;;;5006125;28;20093;-81
2023/02/20 04:53:28;;;;;;;6.90;3.13;;;5.80;99.90;;;;;;5004607;28;20041;-81
2023/02/20 04:55:53;;;;;;;5.50;2.70;;;5.70;99.90;;;;;;5006214;28;20026;-81
2023/02/20 04:58:19;;;;;;;5.23;2.93;;;5.70;99.90;;;;;;5008427;28;20113;-81
2023/02/20 05:00:44;;;;;;;6.90;3.27;;;5.70;99.90;;;;;;5004099;28;20061;-81
2023/02/20 05:03:10;;;;;;;10.00;4.03;;;5.60;99.90;;;;;;4998516;28;20842;-81
2023/02/20 05:05:35;;;;;;;6.43;3.07;;;5.50;99.90;;;;;;5004902;28;20426;-81
2023/02/20 05:08:05;;;;;;;9.60;3.17;;;5.50;99.90;;;;;;5004504;28;20022;-81
2023/02/20 05:10:32;;;;;;;6.47;3.20;;;5.50;99.90;;;;;;5002511;28;20029;-81
2023/02/20 05:12:57;;;;;;;6.03;2.97;;;5.40;99.90;;;;;;4999763;28;20060;-81
2023/02/20 05:15:24;;;;;;;9.33;3.17;;;5.40;99.90;;;;;;5005588;28;20482;-81
2023/02/20 05:17:50;;;;;;;6.67;3.33;;;5.30;99.90;;;;;;5003964;28;20026;-81
2023/02/20 05:20:17;;;;;;;6.07;3.40;;;5.30;99.90;;;;;;5004397;28;20053;-81
2023/02/20 05:22:46;;;;;;;6.00;3.57;;;5.20;99.90;;;;;;5005117;28;20041;-81
2023/02/20 05:25:13;;;;;;;5.50;2.90;;;5.30;99.90;;;;;;5006267;28;20033;-80
2023/02/20 05:27:39;;;;;;;5.57;2.93;;;5.20;99.90;;;;;;5004557;28;20045;-80
2023/02/20 05:30:07;;;;;;;6.60;3.27;;;5.20;99.90;;;;;;5003764;28;20778;-80
2023/02/20 05:32:32;;;;;;;8.57;3.47;;;5.10;99.90;;;;;;5003448;28;20022;-80
2023/02/20 05:34:58;;;;;;;8.33;3.70;;;5.10;99.90;;;;;;5013565;28;20345;-80
2023/02/20 05:37:25;;;;;;;9.93;3.40;;;5.10;99.90;;;;;;5001887;28;20030;-80
2023/02/20 05:39:51;;;;;;;7.00;3.37;;;5.10;99.90;;;;;;5004764;28;21476;-80
2023/02/20 05:42:17;;;;;;;6.97;3.13;;;5.10;99.90;;;;;;5001431;28;20109;-80
2023/02/20 05:44:43;;;;;;;8.53;3.07;;;5.10;99.90;;;;;;5000093;28;20060;-80
2023/02/20 05:47:09;;;;;;;6.87;2.80;;;5.10;99.90;;;;;;5003361;28;20104;-80
2023/02/20 05:49:35;;;;;;;6.60;3.50;;;5.10;99.90;;;;;;5001685;28;20022;-80
2023/02/20 05:52:10;;;;;;;7.37;3.40;;;5.20;99.90;;;;;;5002150;28;20038;-80
2023/02/20 05:54:36;;;;;;;10.07;3.17;;;5.20;99.90;;;;;;5001267;28;20026;-80
2023/02/20 05:57:02;;;;;;;7.03;3.47;;;5.20;99.90;;;;;;5002040;28;20269;-80
2023/02/20 05:59:27;;;;;;;5.87;3.23;;;5.10;99.90;;;;;;5003053;28;20025;-76
2023/02/20 06:01:58;;;;;;;6.73;2.80;;;5.10;99.90;;;;;;5000392;28;20025;-76
2023/02/20 06:04:23;;;;;;;7.00;3.33;;;5.10;99.90;;;;;;4997955;28;20030;-76
2023/02/20 06:06:49;;;;;;;7.03;3.03;;;5.10;99.90;;;;;;4998950;28;20032;-76
2023/02/20 06:09:15;;;;;;;8.27;3.50;;;5.10;99.90;;;;;;5001832;28;20459;-76
2023/02/20 06:11:47;;;;;;;8.97;3.67;;;5.10;99.90;;;;;;5001834;28;20022;-76
2023/02/20 06:14:14;;;;;;;5.77;3.10;;;5.10;99.90;;;;;;5003982;28;20050;-76
2023/02/20 06:16:39;;;;;;;6.63;3.30;;;5.10;99.90;;;;;;5000660;28;20407;-76
2023/02/20 06:19:05;;;;;;;12.97;3.40;;;5.10;99.90;;;;;;5001397;28;20026;-76
2023/02/20 06:21:34;;;;;;;7.63;3.00;;;5.10;99.90;;;;;;4999516;28;20026;-76
2023/02/20 06:24:00;;;;;;;5.57;3.20;;;5.10;99.90;;;;;;5002714;28;20023;-76
2023/02/20 06:26:26;;;;;;;11.00;3.60;;;5.00;99.90;;;;;;5000467;28;20022;-76
2023/02/20 06:28:53;;;;;;;6.07;3.33;;;5.00;99.90;;;;;;5001922;28;20018;-76
2023/02/20 06:31:27;;;;;;;6.97;3.37;;;5.00;99.90;;;;;;5000682;28;20691;-76
2023/02/20 06:33:53;;;;;;;5.50;3.30;;;4.90;99.90;;;;;;5000675;28;20026;-76
2023/02/20 06:36:28;;;;;;;7.23;3.27;;;4.90;99.90;;;;;;5003950;28;20018;-76
2023/02/20 06:38:53;;;;;;;8.15;3.15;;;4.90;99.90;;;;;;5000182;28;20019;-76
2023/02/20 06:41:19;;;;;;;9.53;3.33;;;5.00;99.90;;;;;;5002160;28;20259;-76
2023/02/20 06:43:44;;;;;;;6.80;3.00;;;4.90;99.90;;;;;;5004608;28;20023;-76
2023/02/20 06:46:10;;;;;;;7.63;3.20;;;4.90;99.90;;;;;;5004289;28;20053;-76
2023/02/20 06:48:53;;;;;;;7.23;3.30;;;4.90;99.90;;;;;;4999839;28;20030;-76
2023/02/20 06:51:22;;;;;;;5.37;3.37;;;4.90;99.90;;;;;;5003109;28;20018;-76
2023/02/20 06:53:48;;;;;;;6.10;3.20;;;5.00;99.90;;;;;;5004373;28;20038;-76
2023/02/20 06:56:20;;;;;;;7.20;3.60;;;4.90;99.90;;;;;;5009654;28;20172;-76
2023/02/20 06:58:48;;;;;;;7.27;2.73;;;5.00;99.90;;;;;;5007250;28;20029;-75
2023/02/20 07:01:14;;;;;;;5.57;2.80;;;5.00;99.90;;;;;;5004729;28;20026;-76
2023/02/20 07:03:40;;;;;;;6.60;3.30;;;5.00;99.90;;;;;;5005714;28;20029;-76
2023/02/20 07:06:05;;;;;;;10.27;3.40;;;5.00;99.90;;;;;;5001653;28;20030;-76
2023/02/20 07:08:31;;;;;;;6.30;3.43;;;5.10;99.90;;;;;;5003370;28;20029;-76
2023/02/20 07:10:56;;;;;;;8.23;3.40;;;5.10;99.90;;;;;;5005606;28;20049;-76
2023/02/20 07:13:22;;;;;;;6.40;3.17;;;5.20;99.90;;;;;;5002874;28;20104;-76
2023/02/20 07:15:48;;;;;;;9.33;3.80;;;5.30;99.90;;;;;;5002610;28;20066;-76
2023/02/20 07:18:16;;;;;;;7.27;3.00;;;5.30;99.90;;;;;;5004961;28;20034;-79
2023/02/20 07:20:42;;;;;;;6.67;3.20;;;5.50;99.90;;;;;;5000620;28;20092;-79
2023/02/20 07:23:07;;;;;;;6.73;3.00;;;5.50;99.90;;;;;;5001763;28;20029;-79
2023/02/20 07:25:33;;;;;;;7.57;3.40;;;5.70;99.90;;;;;;4998370;28;20038;-79
2023/02/20 07:27:59;;;;;;;6.23;3.30;;;5.70;99.90;;;;;;4997778;28;20109;-79
2023/02/20 07:30:25;;;;;;;8.77;3.37;;;5.70;99.90;;;;;;5000769;28;20022;-79
2023/02/20 07:32:51;;;;;;;6.47;3.70;;;5.80;99.90;;;;;;5004005;28;20033;-79
2023/02/20 07:35:16;;;;;;;5.63;3.40;;;5.80;99.90;;;;;;5005370;28;20029;-79
2023/02/20 07:37:42;;;;;;;7.53;3.30;;;5.90;99.90;;;;;;5002747;28;20390;-79
2023/02/20 07:40:08;;;;;;;7.60;3.33;;;5.90;99.90;;;;;;5001478;28;20103;-79
2023/02/20 07:42:33;;;;;;;5.70;3.07;;;5.90;99.90;;;;;;5006351;28;20041;-76
2023/02/20 07:44:59;;;;;;;8.20;3.43;;;5.90;99.90;;;;;;5003755;28;20022;-79
2023/02/20 07:47:24;;;;;;;8.33;3.53;;;5.90;99.90;;;;;;5001494;28;20026;-79
2023/02/20 07:49:50;;;;;;;8.70;3.40;;;6.00;99.90;;;;;;5004790;28;20108;-79
2023/02/20 07:52:16;;;;;;;6.47;3.13;;;6.00;99.90;;;;;;5011376;28;20490;-79
2023/02/20 07:54:42;;;;;;;6.27;3.10;;;6.00;99.90;;;;;;5004248;28;20034;-79
2023/02/20 07:57:08;;;;;;;8.87;3.60;;;6.10;99.90;;;;;;5003933;28;20450;-75
2023/02/20 07:59:33;;;;;;;7.83;3.53;;;6.30;99.90;;;;;;5009998;28;20037;-75
2023/02/20 08:01:59;;;;;;;6.27;3.07;;;6.60;99.90;;;;;;5008069;28;20460;-75
2023/02/20 08:04:26;;;;;;;8.20;3.07;;;6.70;99.90;;;;;;5007639;28;20843;-75
2023/02/20 08:06:51;;;;;;;9.23;3.00;;;6.80;99.90;;;;;;5006583;28;20744;-75
2023/02/20 08:09:17;;;;;;;8.33;2.83;;;7.00;99.90;;;;;;5007218;28;20094;-75
2023/02/20 08:11:45;;;;;;;6.83;3.00;;;7.10;99.90;;;;;;5002128;28;20026;-75
2023/02/20 08:14:13;;;;;;;10.00;3.20;;;7.20;99.90;;;;;;5007492;28;20464;-75
2023/02/20 08:16:38;;;;;;;6.73;4.33;;;7.20;99.90;;;;;;5005387;28;20022;-75
2023/02/20 08:19:04;;;;;;;6.77;3.03;;;7.20;99.90;;;;;;5002383;28;20036;-75
2023/02/20 08:21:29;;;;;;;7.60;2.73;;;7.20;99.90;;;;;;5006864;28;20201;-75
2023/02/20 08:23:55;;;;;;;6.83;3.00;;;7.20;99.90;;;;;;5004945;28;20093;-75
2023/02/20 08:26:20;;;;;;;6.37;3.03;;;7.20;99.90;;;;;;4998003;28;20034;-79
2023/02/20 08:28:47;;;;;;;4.67;2.80;;;7.30;99.90;;;;;;4998734;28;20030;-78
2023/02/20 08:31:13;;;;;;;11.00;3.90;;;7.40;99.90;;;;;;5000787;28;20036;-79
2023/02/20 08:33:38;;;;;;;8.87;3.17;;;7.50;99.90;;;;;;5000442;28;20018;-76
2023/02/20 08:36:04;;;;;;;5.70;2.70;;;7.70;99.90;;;;;;5005192;28;20526;-76
2023/02/20 08:38:37;;;;;;;9.73;3.00;;;7.80;99.90;;;;;;5008347;28;20040;-76
2023/02/20 08:41:09;;;;;;;7.87;2.87;;;8.00;99.90;;;;;;5004480;28;20439;-76
2023/02/20 08:43:36;;;;;;;7.87;3.00;;;8.10;99.90;;;;;;5006354;28;20022;-76
2023/02/20 08:46:02;;;;;;;8.63;2.87;;;8.40;99.90;;;;;;5002390;28;20030;-75
2023/02/20 08:48:28;;;;;;;8.17;3.27;;;8.70;99.90;;;;;;5001960;28;20032;-76
2023/02/20 08:50:54;;;;;;;9.53;3.27;;;8.80;99.90;;;;;;5003558;28;20017;-76
2023/02/20 08:53:20;;;;;;;6.50;2.73;;;9.00;99.90;;;;;;5001453;28;20042;-76
2023/02/20 08:55:45;;;;;;;5.17;2.47;;;9.10;99.90;;;;;;5004853;28;20111;-75
2023/02/20 08:58:11;;;;;;;6.07;2.50;;;9.20;99.90;;;;;;5000826;28;20169;-76
2023/02/20 09:00:37;;;;;;;6.43;2.60;;;9.30;99.90;;;;;;5007107;28;20026;-76
2023/02/20 09:03:06;;;;;;;6.67;2.90;;;9.50;99.90;;;;;;5004880;28;20105;-76
2023/02/20 09:05:33;;;;;;;5.93;2.40;;;9.70;99.90;;;;;;5004672;28;20030;-76
2023/02/20 09:07:59;;;;;;;3.63;2.20;;;9.80;99.90;;;;;;5004092;28;20474;-76
2023/02/20 09:10:24;;;;;;;6.03;2.33;;;9.90;99.90;;;;;;5004392;28;20026;-75
2023/02/20 09:12:50;;;;;;;5.87;2.23;;;10.10;99.90;;;;;;5003293;28;20030;-76
2023/02/20 09:15:16;;;;;;;5.60;3.07;;;10.10;99.90;;;;;;5005255;28;20018;-76
2023/02/20 09:17:49;;;;;;;6.00;2.57;;;10.30;99.90;;;;;;5004385;28;20026;-76
2023/02/20 09:20:16;;;;;;;5.57;2.30;;;10.50;99.90;;;;;;5009419;28;20022;-76
2023/02/20 09:22:42;;;;;;;5.47;2.13;;;10.60;99.90;;;;;;5005809;28;20033;-76
2023/02/20 09:25:10;;;;;;;6.30;2.43;;;10.70;99.90;;;;;;5005177;28;20030;-75
2023/02/20 09:27:36;;;;;;;8.27;3.03;;;10.70;99.90;;;;;;5005166;28;20022;-76
2023/02/20 09:30:02;;;;;;;4.80;2.20;;;10.80;99.90;;;;;;5004233;28;20029;-75
2023/02/20 09:32:27;;;;;;;6.37;2.30;;;10.80;99.90;;;;;;5001291;28;20029;-75
2023/02/20 09:34:54;;;;;;;4.10;2.20;;;10.80;99.90;;;;;;5004948;28;20505;-76
2023/02/20 09:37:20;;;;;;;5.80;2.40;;;10.80;99.90;;;;;;5002878;28;20039;-75
2023/02/20 09:39:46;;;;;;;5.83;2.30;;;10.70;99.90;;;;;;5004615;28;20022;-76
2023/02/20 09:42:26;;;;;;;4.60;2.30;;;10.60;99.90;;;;;;5002995;28;20022;-76
2023/02/20 09:45:08;;;;;;;8.27;2.90;;;10.60;99.90;;;;;;5002770;28;20022;-75
2023/02/20 09:47:56;;;;;;;5.00;2.70;;;10.50;99.90;;;;;;5005670;28;20018;-76
2023/02/20 09:50:31;;;;;;;7.03;2.80;;;10.60;99.90;;;;;;5002640;28;20029;-76
2023/02/20 09:53:00;;;;;;;;;;;10.70;99.90;;;;;;5001545;28;20395;-76
2023/02/20 09:55:34;;;;;;;4.87;2.30;;;10.70;99.90;;;;;;4999461;28;19912;-76
2023/02/20 09:58:02;;;;;;;4.90;2.60;;;10.70;99.90;;;;;;5018257;28;20447;-76
2023/02/20 10:00:31;;;;;;;7.07;2.67;;;10.70;99.90;;;;;;5001623;28;20026;-76
2023/02/20 10:03:22;;;;;;;8.27;2.70;;;10.70;99.90;;;;;;4999604;28;20029;-76
2023/02/20 10:05:49;;;;;;;7.67;2.63;;;10.80;99.90;;;;;;4999861;28;20035;-76
2023/02/20 10:08:19;;;;;;;7.57;2.83;;;11.00;99.90;;;;;;5002210;28;20022;-76
2023/02/20 10:10:48;;;;;;;6.87;2.60;;;11.10;99.90;;;;;;5003433;28;20061;-77
2023/02/20 10:14:01;;;;;;;6.53;2.50;;;11.30;99.90;;;;;;5000714;28;20021;-76
2023/02/20 10:16:45;;;;;;;4.53;2.47;;;11.50;99.90;;;;;;4985386;28;20026;-76
2023/02/20 10:19:33;;;;;;;4.80;2.20;;;11.60;99.90;;;;;;5008932;28;21419;-77
2023/02/20 10:22:20;;;;;;;7.32;2.30;;;11.60;99.90;;;;;;5001475;28;20121;-77
2023/02/20 10:25:07;;;;;;;4.60;2.80;;;11.70;99.90;;;;;;5016155;28;20061;-76
2023/02/20 10:27:47;;;;;;;5.75;2.42;;;11.80;99.90;;;;;;5007408;28;20030;-76
2023/02/20 10:30:19;;;;;;;3.67;2.30;;;11.90;99.90;;;;;;5006855;28;20371;-76
2023/02/20 10:32:51;;;;;;;6.03;2.58;;;12.00;99.90;;;;;;5000801;28;20026;-76
2023/02/20 10:35:29;;;;;;;4.72;2.40;;;11.90;99.90;;;;;;5000881;28;20173;-76
2023/02/20 10:38:00;;;;;;;4.88;2.60;;;11.80;99.90;;;;;;5001707;28;20038;-77
2023/02/20 10:40:33;;;;;;;6.07;2.75;;;11.60;99.90;;;;;;5001400;28;20026;-77
2023/02/20 10:43:14;;;;;;;5.32;2.30;;;11.50;99.90;;;;;;5002369;28;20029;-77
2023/02/20 10:45:50;;;;;;;5.32;2.55;;;11.70;99.90;;;;;;5003901;28;20041;-76
2023/02/20 10:48:16;;;;;;;4.00;2.10;;;11.80;99.90;;;;;;5002417;28;20121;-77
2023/02/20 10:51:02;;;;;;;4.95;2.40;;;12.00;99.90;;;;;;4999633;28;20058;-76
2023/02/20 10:53:39;;;;;;;5.45;2.13;;;12.10;99.90;;;;;;4999036;28;20050;-76
2023/02/20 10:56:20;;;;;;;5.05;2.22;;;12.40;99.90;;;;;;5001935;28;20034;-76
2023/02/20 10:58:49;;;;;;;3.70;1.85;;;12.40;99.90;;;;;;5001878;28;20033;-77
2023/02/20 11:01:23;;;;;;;6.22;1.88;;;12.50;99.90;;;;;;5000410;28;20030;-77
2023/02/20 11:04:14;;;;;;;4.75;2.47;;;12.60;99.90;;;;;;5000567;28;20109;-76
2023/02/20 11:06:53;;;;;;;5.43;2.78;;;12.80;99.90;;;;;;5006983;28;20041;-76
2023/02/20 11:09:19;;;;;;;6.05;2.17;;;12.90;99.90;;;;;;5002619;28;20021;-76
2023/02/20 11:11:45;;;;;;;4.70;2.20;;;12.90;99.90;;;;;;4998958;28;20037;-76
2023/02/20 11:14:19;;;;;;;5.75;2.65;;;13.00;99.90;;;;;;4997503;28;20105;-77
2023/02/20 11:16:53;;;;;;;5.07;2.10;;;13.10;99.90;;;;;;4997635;28;20920;-77
2023/02/20 11:19:41;;;;;;;7.13;2.33;;;13.10;99.90;;;;;;5004245;28;20026;-77
2023/02/20 11:22:07;;;;;;;5.80;2.17;;;13.20;99.90;;;;;;4999990;28;20030;-77
2023/02/20 11:24:38;;;;;;;2.88;1.95;;;13.20;99.90;;;;;;5001418;28;21420;-77
2023/02/20 11:27:17;;;;;;;5.38;2.15;;;13.30;99.90;;;;;;5000399;28;20077;-76
2023/02/20 11:29:49;;;;;;;3.38;2.10;;;13.40;99.90;;;;;;4997188;28;20497;-77
2023/02/20 11:32:34;;;;;;;24.58;4.10;;;13.50;99.90;;;;;;5001831;28;20479;-76
2023/02/20 11:35:13;;;;;;;4.85;2.08;;;13.50;99.90;;;;;;5000593;28;20034;-77
2023/02/20 11:37:39;;;;;;;4.03;1.90;;;13.60;99.90;;;;;;4997957;28;20483;-77
2023/02/20 11:40:24;;;;;;;3.63;1.90;;;13.90;99.90;;;;;;5002565;28;20032;-76
2023/02/20 11:42:50;;;;;;;4.00;1.73;;;14.10;99.90;;;;;;5002757;28;20034;-76
2023/02/20 11:45:27;;;;;;;3.92;1.83;;;14.20;99.90;;;;;;5005877;28;20030;-77
2023/02/20 11:48:19;;;;;;;8.98;2.13;;;14.30;99.90;;;;;;5006646;28;20025;-77
2023/02/20 11:50:47;;;;;;;5.90;2.20;;;14.30;99.90;;;;;;5006208;28;20033;-77
2023/02/20 11:53:26;;;;;;;4.45;1.70;;;14.40;99.90;;;;;;5005984;28;20042;-80
2023/02/20 11:56:11;;;;;;;6.35;2.13;;;14.50;99.90;;;;;;5008882;28;20034;-79
2023/02/20 11:58:38;;;;;;;4.13;1.85;;;14.50;99.90;;;;;;5002234;28;20030;-79
2023/02/20 12:01:04;;;;;;;6.03;2.10;;;14.50;99.90;;;;;;5003921;28;20538;-79
2023/02/20 12:03:33;;;;;;;2.63;1.90;;;14.60;99.90;;;;;;5004547;28;20411;-80
2023/02/20 12:06:20;;;;;;;5.25;1.77;;;14.50;99.90;;;;;;5007629;28;20072;-80
2023/02/20 12:08:54;;;;;;;5.25;2.00;;;14.50;99.90;;;;;;5005879;28;20061;-79
2023/02/20 12:11:26;;;;;;;3.15;1.75;;;14.50;99.90;;;;;;5004962;28;20089;-79
2023/02/20 12:13:54;;;;;;;6.25;1.85;;;14.50;99.90;;;;;;5005233;28;20045;-80
2023/02/20 12:16:40;;;;;;;5.30;2.00;;;14.60;99.90;;;;;;5007130;28;20033;-80
2023/02/20 12:19:37;;;;;;;4.20;1.83;;;14.70;99.90;;;;;;5007280;28;20037;-80
2023/02/20 12:22:11;;;;;;;3.45;1.58;;;14.70;99.90;;;;;;5006926;28;20034;-80
2023/02/20 12:25:04;;;;;;;3.92;1.80;;;14.60;99.90;;;;;;5007021;28;20076;-80
2023/02/20 12:27:52;;;;;;;4.10;1.80;;;14.60;99.90;;;;;;5005029;28;20025;-79
2023/02/20 12:30:21;;;;;;;3.88;1.75;;;14.90;99.90;;;;;;5004812;28;20090;-80
2023/02/20 12:32:56;;;;;;;4.82;1.60;;;15.00;99.90;;;;;;5004876;28;20022;-80
2023/02/20 12:35:33;;;;;;;3.08;1.80;;;15.10;99.90;;;;;;5004256;28;20032;-80
2023/02/20 12:38:25;;;;;;;3.75;1.65;;;15.20;99.90;;;;;;5002272;28;20026;-80
2023/02/20 12:41:06;;;;;;;7.85;1.75;;;15.30;99.90;;;;;;5004511;28;20037;-80
2023/02/20 12:44:05;;;;;;;4.35;1.98;;;15.40;99.90;;;;;;4999174;28;20026;-79
2023/02/20 12:46:43;;;;;;;6.55;1.92;;;15.40;99.90;;;;;;5003850;28;20420;-80
2023/02/20 12:49:31;;;;;;;4.65;1.42;;;15.40;99.90;;;;;;5001059;28;20034;-81
2023/02/20 12:52:14;;;;;;;2.70;1.80;;;15.40;99.90;;;;;;5002748;28;20495;-80
2023/02/20 12:55:03;;;;;;;5.47;1.83;;;15.60;99.90;;;;;;5005325;28;20041;-80
2023/02/20 12:57:40;;;;;;;3.83;1.60;;;15.60;99.90;;;;;;5001493;28;20040;-80
2023/02/20 13:00:14;;;;;;;5.40;2.05;;;15.50;99.90;;;;;;5005482;28;20036;-80
2023/02/20 13:02:45;;;;;;;7.20;2.00;;;15.50;99.90;;;;;;5001070;28;20030;-80
2023/02/20 13:05:16;;;;;;;4.53;2.03;;;15.50;99.90;;;;;;5004773;28;20180;-80
2023/02/20 13:07:54;;;;;;;5.43;1.60;;;15.50;99.90;;;;;;5003441;28;20037;-79
2023/02/20 13:10:27;;;;;;;3.78;1.70;;;15.60;99.90;;;;;;5002235;28;20108;-80
2023/02/20 13:12:52;;;;;;;6.88;1.92;;;15.50;99.90;;;;;;5001655;28;20464;-80
2023/02/20 13:15:37;;;;;;;6.07;1.67;;;15.50;99.90;;;;;;5003063;28;20026;-79
2023/02/20 13:18:16;;;;;;;3.17;1.50;;;15.50;99.90;;;;;;5001692;28;20049;-80
2023/02/20 13:20:48;;;;;;;3.53;1.52;;;15.50;99.90;;;;;;5003637;28;20053;-80
2023/02/20 13:23:14;;;;;;;2.55;1.75;;;15.50;99.90;;;;;;5001423;28;20038;-80
2023/02/20 13:25:41;;;;;;;4.22;1.70;;;15.60;99.90;;;;;;5000631;28;20118;-79